Time;durP1;ratioP1;P1;durP2;ratioP2;P2;SDS_P1;SDS_P2;PMS_P1;PMS_P2;Temp;Humidity;BMP_temperature;BMP_pressure;BME280_temperature;BME280_humidity;BME280_pressure;Samples;Min_cycle;Max_cycle;Signal;HPM_P1;HPM_P2
2022/08/06 00:01:54;;;;;;;18.15;11.75;;;25.40;99.90;;;;;;4849056;29;20045;-94
2022/08/06 00:04:21;;;;;;;14.45;10.93;;;25.50;99.90;;;;;;4849113;29;20029;-93
2022/08/06 00:06:48;;;;;;;16.90;10.73;;;25.50;99.90;;;;;;4849087;29;20499;-93
2022/08/06 00:09:24;;;;;;;13.00;10.32;;;25.40;99.90;;;;;;4849035;29;20484;-93
2022/08/06 00:11:51;;;;;;;16.98;10.93;;;25.40;99.90;;;;;;4848801;29;20523;-95
2022/08/06 00:14:17;;;;;;;14.05;10.55;;;25.30;99.90;;;;;;4849131;29;20029;-94
2022/08/06 00:16:47;;;;;;;19.60;10.27;;;25.20;99.90;;;;;;4849055;29;20036;-93
2022/08/06 00:19:14;;;;;;;13.25;10.57;;;25.20;99.90;;;;;;4848856;29;20025;-93
2022/08/06 00:21:41;;;;;;;14.25;10.57;;;25.20;99.90;;;;;;4848698;29;20473;-92
2022/08/06 00:24:08;;;;;;;13.93;10.07;;;25.10;99.90;;;;;;4848845;29;20025;-92
2022/08/06 00:26:37;;;;;;;12.77;9.70;;;25.10;99.90;;;;;;4848661;29;20036;-96
2022/08/06 00:29:05;;;;;;;18.38;10.77;;;25.20;99.90;;;;;;4864373;29;20025;-94
2022/08/06 00:31:32;;;;;;;12.02;10.20;;;25.30;99.90;;;;;;4848790;29;20101;-93
2022/08/06 00:34:03;;;;;;;11.88;9.60;;;25.30;99.90;;;;;;4848663;29;20111;-92
2022/08/06 00:36:32;;;;;;;11.60;10.23;;;25.30;99.90;;;;;;4863876;29;20039;-92
2022/08/06 00:39:01;;;;;;;14.20;10.85;;;25.30;99.90;;;;;;4848468;29;20032;-94
2022/08/06 00:41:32;;;;;;;16.77;11.30;;;25.30;99.90;;;;;;4848682;29;20047;-94
2022/08/06 00:43:59;;;;;;;14.70;11.70;;;25.30;99.90;;;;;;4848781;29;20029;-92
2022/08/06 00:46:27;;;;;;;15.25;10.70;;;25.20;99.90;;;;;;4848499;29;20032;-92
2022/08/06 00:48:54;;;;;;;14.13;10.90;;;25.20;99.90;;;;;;4849407;29;20071;-92
2022/08/06 00:51:25;;;;;;;14.43;11.43;;;25.10;99.90;;;;;;4848985;29;20033;-93
2022/08/06 00:53:52;;;;;;;16.00;11.80;;;25.10;99.90;;;;;;4848599;29;20029;-92
2022/08/06 00:56:19;;;;;;;14.48;10.95;;;25.10;99.90;;;;;;4848366;29;20036;-92
2022/08/06 00:58:46;;;;;;;15.40;11.30;;;25.10;99.90;;;;;;4848415;29;20033;-92
2022/08/06 01:01:13;;;;;;;15.48;11.65;;;25.10;99.90;;;;;;4849052;29;20073;-91
2022/08/06 01:03:39;;;;;;;17.30;11.60;;;25.10;99.90;;;;;;4848536;29;20033;-92
2022/08/06 01:06:06;;;;;;;14.95;11.27;;;25.10;99.90;;;;;;4848218;29;20033;-94
2022/08/06 01:08:33;;;;;;;13.45;10.40;;;25.00;99.90;;;;;;4850602;29;20029;-93
2022/08/06 01:11:00;;;;;;;11.93;10.57;;;25.00;99.90;;;;;;4852118;29;20058;-92
2022/08/06 01:13:27;;;;;;;12.63;10.70;;;25.00;99.90;;;;;;4851971;29;20035;-93
2022/08/06 01:16:17;;;;;;;12.93;10.57;;;24.90;99.90;;;;;;4852184;29;20025;-92
2022/08/06 01:19:07;;;;;;;15.30;10.50;;;24.90;99.90;;;;;;4867510;29;20029;-91
2022/08/06 01:21:46;;;;;;;12.23;10.27;;;24.90;99.90;;;;;;4818315;29;20104;-92
2022/08/06 01:24:51;;;;;;;12.75;9.85;;;24.90;99.90;;;;;;4867309;29;20037;-92
2022/08/06 01:27:29;;;;;;;23.48;11.20;;;24.90;99.90;;;;;;4867519;29;20064;-93
2022/08/06 01:30:23;;;;;;;13.18;11.00;;;24.90;99.90;;;;;;4867318;29;20029;-91
2022/08/06 01:33:07;;;;;;;11.52;9.57;;;24.90;99.90;;;;;;4778505;29;20043;-92
2022/08/06 01:35:43;;;;;;;11.80;9.25;;;24.90;99.90;;;;;;4809566;29;20394;-92
2022/08/06 01:38:22;;;;;;;11.52;9.32;;;24.90;99.90;;;;;;4793671;29;20038;-92
2022/08/06 01:41:43;;;;;;;10.00;9.00;;;24.90;99.90;;;;;;4793297;29;20512;-93
2022/08/06 01:44:16;;;;;;;12.32;9.38;;;25.00;99.90;;;;;;4793634;29;20133;-94
2022/08/06 01:46:57;;;;;;;10.88;8.77;;;25.00;99.90;;;;;;4793184;29;20043;-93
2022/08/06 01:49:27;;;;;;;13.88;8.73;;;25.00;99.90;;;;;;4775368;30;20073;-93
2022/08/06 01:52:01;;;;;;;11.35;8.80;;;25.00;99.90;;;;;;4790225;29;20041;-92
2022/08/06 01:54:34;;;;;;;18.50;9.82;;;24.90;99.90;;;;;;4775311;30;20122;-91
2022/08/06 01:57:03;;;;;;;10.20;9.23;;;24.90;99.90;;;;;;4775353;30;20058;-92
2022/08/06 01:59:36;;;;;;;10.65;8.38;;;24.80;99.90;;;;;;4775034;30;20530;-92
2022/08/06 02:02:08;;;;;;;11.60;8.77;;;24.70;99.90;;;;;;4790053;30;20511;-91
2022/08/06 02:04:40;;;;;;;16.17;9.10;;;24.60;99.90;;;;;;4774990;29;20031;-92
2022/08/06 02:07:12;;;;;;;11.45;8.43;;;24.50;99.90;;;;;;4774991;30;20467;-93
2022/08/06 02:09:43;;;;;;;10.02;8.82;;;24.50;99.90;;;;;;4807982;29;20132;-93
2022/08/06 02:12:14;;;;;;;9.90;8.15;;;24.40;99.90;;;;;;4832978;29;20058;-92
2022/08/06 02:15:01;;;;;;;12.63;9.20;;;24.40;99.90;;;;;;4848726;29;20061;-90
2022/08/06 02:17:39;;;;;;;11.63;9.02;;;24.50;99.90;;;;;;4848564;29;20029;-94
2022/08/06 02:20:10;;;;;;;10.95;9.65;;;24.60;99.90;;;;;;4846819;29;20038;-92
2022/08/06 02:22:39;;;;;;;12.95;8.73;;;24.60;99.90;;;;;;4847823;29;20041;-93
2022/08/06 02:25:11;;;;;;;16.55;9.38;;;24.70;99.90;;;;;;4832456;29;20025;-93
2022/08/06 02:27:47;;;;;;;11.05;9.75;;;24.70;99.90;;;;;;4847846;29;20065;-92
2022/08/06 02:30:14;;;;;;;10.32;8.75;;;24.70;99.90;;;;;;4847563;29;20041;-92
2022/08/06 02:32:42;;;;;;;10.02;8.43;;;24.70;99.90;;;;;;4847523;29;20061;-93
2022/08/06 02:35:15;;;;;;;10.43;9.30;;;24.70;99.90;;;;;;4847657;29;20038;-91
2022/08/06 02:38:02;;;;;;;10.63;8.98;;;24.70;99.90;;;;;;4832457;29;20120;-93
2022/08/06 02:40:42;;;;;;;13.32;9.35;;;24.70;99.90;;;;;;4862707;29;20042;-91
2022/08/06 02:43:27;;;;;;;14.70;9.10;;;24.70;99.90;;;;;;4862923;29;20093;-92
2022/08/06 02:46:15;;;;;;;11.75;8.65;;;24.70;99.90;;;;;;4847413;29;20033;-92
2022/08/06 02:48:53;;;;;;;10.63;9.23;;;24.70;99.90;;;;;;4859602;29;20061;-93
2022/08/06 02:51:27;;;;;;;11.98;9.05;;;24.70;99.90;;;;;;4847473;29;20479;-92
2022/08/06 02:54:09;;;;;;;11.90;8.43;;;24.70;99.90;;;;;;4862903;29;20038;-92
2022/08/06 02:56:43;;;;;;;12.10;9.18;;;24.60;99.90;;;;;;4862636;29;20025;-92
2022/08/06 02:59:12;;;;;;;11.57;8.80;;;24.60;99.90;;;;;;4862701;29;20120;-93
2022/08/06 03:01:54;;;;;;;10.32;9.20;;;24.60;99.90;;;;;;4863556;29;20046;-93
2022/08/06 03:04:43;;;;;;;10.95;9.27;;;24.60;99.90;;;;;;4866784;29;20056;-94
2022/08/06 03:07:12;;;;;;;12.73;8.50;;;24.60;99.90;;;;;;4847493;29;20033;-93
2022/08/06 03:09:45;;;;;;;14.57;9.18;;;24.60;99.90;;;;;;4862728;29;20030;-92
2022/08/06 03:12:15;;;;;;;11.02;9.80;;;24.60;99.90;;;;;;4862575;29;20030;-94
2022/08/06 03:14:43;;;;;;;11.50;9.55;;;24.60;99.90;;;;;;4862413;29;20046;-92
2022/08/06 03:17:13;;;;;;;11.65;9.63;;;24.50;99.90;;;;;;4862361;29;20034;-93
2022/08/06 03:19:43;;;;;;;15.10;9.20;;;24.40;99.90;;;;;;4862747;29;20061;-93
2022/08/06 03:22:17;;;;;;;15.15;9.73;;;24.40;99.90;;;;;;4862093;29;20097;-92
2022/08/06 03:24:46;;;;;;;12.73;9.77;;;24.40;99.90;;;;;;4862239;29;20048;-93
2022/08/06 03:27:16;;;;;;;11.32;9.18;;;24.40;99.90;;;;;;4862780;29;20033;-92
2022/08/06 03:29:43;;;;;;;12.23;9.90;;;24.30;99.90;;;;;;4863858;29;20040;-92
2022/08/06 03:32:14;;;;;;;11.40;8.73;;;24.30;99.90;;;;;;4862208;29;20036;-94
2022/08/06 03:34:42;;;;;;;10.52;9.40;;;24.40;99.90;;;;;;4861943;29;20049;-93
2022/08/06 03:37:23;;;;;;;11.10;8.70;;;24.40;99.90;;;;;;4861829;29;20372;-92
2022/08/06 03:39:52;;;;;;;12.35;8.70;;;24.40;99.90;;;;;;4862009;29;20493;-92
2022/08/06 03:42:18;;;;;;;10.07;8.50;;;24.30;99.90;;;;;;4849357;29;20056;-90
2022/08/06 03:44:45;;;;;;;11.73;8.93;;;24.30;99.90;;;;;;4865743;29;20032;-92
2022/08/06 03:47:32;;;;;;;12.18;9.02;;;24.40;99.90;;;;;;4864197;29;20487;-94
2022/08/06 03:50:11;;;;;;;18.88;9.60;;;24.40;99.90;;;;;;4864842;29;20100;-93
2022/08/06 03:52:44;;;;;;;13.63;9.20;;;24.30;99.90;;;;;;4864621;29;20044;-93
2022/08/06 03:55:17;;;;;;;11.80;9.43;;;24.30;99.90;;;;;;4849487;29;20097;-93
2022/08/06 03:57:49;;;;;;;13.02;9.38;;;24.20;99.90;;;;;;4864415;29;20037;-92
2022/08/06 04:00:19;;;;;;;12.70;9.13;;;24.20;99.90;;;;;;4864767;29;20400;-93
2022/08/06 04:02:54;;;;;;;10.13;9.02;;;24.20;99.90;;;;;;4864582;29;20039;-94
2022/08/06 04:05:27;;;;;;;11.98;9.10;;;24.20;99.90;;;;;;4864579;29;20144;-93
2022/08/06 04:08:05;;;;;;;15.43;9.63;;;24.20;99.90;;;;;;4864492;29;20057;-94
2022/08/06 04:10:50;;;;;;;10.93;8.93;;;24.20;99.90;;;;;;4849413;29;20514;-93
2022/08/06 04:13:20;;;;;;;12.45;9.65;;;24.30;99.90;;;;;;4864327;29;20120;-93
2022/08/06 04:15:48;;;;;;;17.27;9.38;;;24.30;99.90;;;;;;4865955;29;20037;-91
2022/08/06 04:18:19;;;;;;;14.45;9.20;;;24.40;99.90;;;;;;4864910;29;20033;-93
2022/08/06 04:20:48;;;;;;;12.35;9.38;;;24.40;99.90;;;;;;4864404;29;20041;-92
2022/08/06 04:23:16;;;;;;;12.80;9.55;;;24.40;99.90;;;;;;4864100;29;20037;-92
2022/08/06 04:25:49;;;;;;;27.20;10.20;;;24.50;99.90;;;;;;4864052;29;20464;-92
2022/08/06 04:28:18;;;;;;;11.32;9.77;;;24.50;99.90;;;;;;4848752;29;20029;-92
2022/08/06 04:30:48;;;;;;;13.35;9.73;;;24.50;99.90;;;;;;4864164;29;20029;-93
2022/08/06 04:33:19;;;;;;;12.60;9.57;;;24.60;99.90;;;;;;4864216;29;20036;-92
2022/08/06 04:35:49;;;;;;;11.13;9.07;;;24.70;99.90;;;;;;4863924;29;20029;-92
2022/08/06 04:38:22;;;;;;;14.75;10.18;;;24.90;99.90;;;;;;4864155;29;20035;-93
2022/08/06 04:40:50;;;;;;;16.30;9.47;;;24.80;99.90;;;;;;4863930;29;20041;-93
2022/08/06 04:43:16;;;;;;;13.75;9.98;;;25.00;99.90;;;;;;4863410;29;20032;-93
2022/08/06 04:45:44;;;;;;;16.25;10.15;;;25.10;99.90;;;;;;4863969;29;20070;-92
2022/08/06 04:48:13;;;;;;;15.10;9.75;;;25.10;99.90;;;;;;4848500;29;20091;-92
2022/08/06 04:50:40;;;;;;;15.02;9.90;;;25.10;99.90;;;;;;4863634;29;20029;-94
2022/08/06 04:53:12;;;;;;;15.00;9.27;;;25.30;99.90;;;;;;4879350;29;20494;-94
2022/08/06 04:55:42;;;;;;;11.15;9.13;;;25.50;99.90;;;;;;4864065;29;20040;-93
2022/08/06 04:58:19;;;;;;;13.15;9.57;;;25.90;99.90;;;;;;4863856;29;20033;-93
2022/08/06 05:00:47;;;;;;;16.55;9.55;;;26.30;99.90;;;;;;4863680;29;20036;-93
2022/08/06 05:03:15;;;;;;;13.73;10.82;;;26.90;99.90;;;;;;4880719;29;20120;-93
2022/08/06 05:06:18;;;;;;;14.98;10.43;;;27.60;99.90;;;;;;4849406;29;20041;-94
2022/08/06 05:08:50;;;;;;;14.00;10.45;;;28.00;99.90;;;;;;4848461;29;20025;-94
2022/08/06 05:11:31;;;;;;;12.23;11.02;;;27.90;99.90;;;;;;4848616;29;20036;-93
2022/08/06 05:14:05;;;;;;;13.25;11.98;;;27.90;99.90;;;;;;4848657;29;20407;-93
2022/08/06 05:16:34;;;;;;;;;;;28.60;99.90;;;;;;4848736;29;20064;-93
2022/08/06 05:19:04;;;;;;;15.35;13.80;;;29.50;99.90;;;;;;4848519;29;20007;-94
2022/08/06 05:21:35;;;;;;;15.55;14.25;;;30.10;99.90;;;;;;4848590;29;20070;-92
2022/08/06 05:24:03;;;;;;;16.75;15.20;;;30.20;99.90;;;;;;4849044;29;20057;-93
2022/08/06 05:26:30;;;;;;;18.45;16.55;;;30.60;99.90;;;;;;4849226;29;20029;-93
2022/08/06 05:29:00;;;;;;;17.70;16.08;;;31.30;99.90;;;;;;4848999;29;20026;-92
2022/08/06 05:31:41;;;;;;;20.05;16.55;;;31.90;99.90;;;;;;4848804;29;20037;-93
2022/08/06 05:34:12;;;;;;;19.75;17.65;;;32.80;99.90;;;;;;4851416;29;20037;-91
2022/08/06 05:36:40;;;;;;;19.70;17.05;;;33.20;99.90;;;;;;4852800;29;20033;-93
2022/08/06 05:39:07;;;;;;;18.60;16.92;;;33.40;99.90;;;;;;4848616;29;20033;-92
2022/08/06 05:41:37;;;;;;;20.70;16.45;;;34.00;99.90;;;;;;4848557;29;20517;-91
2022/08/06 05:44:04;;;;;;;19.88;17.08;;;34.10;99.90;;;;;;4850515;29;20120;-92
2022/08/06 05:46:34;;;;;;;20.15;17.65;;;34.30;99.90;;;;;;4848583;29;20040;-93
2022/08/06 05:49:04;;;;;;;18.27;16.50;;;34.70;99.90;;;;;;4847924;29;20060;-93
2022/08/06 05:51:55;;;;;;;19.08;17.13;;;34.80;99.90;;;;;;4863487;29;20041;-92
2022/08/06 05:54:48;;;;;;;17.90;16.30;;;35.10;99.90;;;;;;4849516;29;20029;-92
2022/08/06 05:57:27;;;;;;;18.85;16.85;;;35.40;99.90;;;;;;4851252;29;20029;-94
2022/08/06 06:00:08;;;;;;;17.25;15.75;;;35.80;99.90;;;;;;4866895;29;20120;-92
2022/08/06 06:02:38;;;;;;;17.90;16.20;;;36.10;99.90;;;;;;4866845;29;20057;-91
2022/08/06 06:05:08;;;;;;;17.30;15.75;;;36.60;99.90;;;;;;4851250;29;20056;-93
2022/08/06 06:07:35;;;;;;;17.17;15.65;;;36.70;99.90;;;;;;4852019;29;20067;-93
2022/08/06 06:10:04;;;;;;;17.65;16.00;;;36.40;99.90;;;;;;4858554;29;20025;-93
2022/08/06 06:12:32;;;;;;;25.48;19.33;;;36.50;99.90;;;;;;4884975;29;20479;-91
2022/08/06 06:15:02;;;;;;;23.48;20.15;;;36.80;99.90;;;;;;4869977;29;20557;-92
2022/08/06 06:17:41;;;;;;;20.38;17.88;;;36.80;99.90;;;;;;4884905;29;20024;-93
2022/08/06 06:20:20;;;;;;;19.45;17.55;;;37.80;99.90;;;;;;4869772;29;20060;-92
2022/08/06 06:23:02;;;;;;;19.63;17.65;;;38.10;99.90;;;;;;4869615;29;20407;-92
2022/08/06 06:25:33;;;;;;;17.67;16.15;;;37.90;99.90;;;;;;4869279;29;20029;-92
2022/08/06 06:28:08;;;;;;;15.70;14.60;;;38.10;99.90;;;;;;4885125;29;20439;-93
2022/08/06 06:30:51;;;;;;;15.27;13.90;;;38.00;99.90;;;;;;4888279;29;20036;-92
2022/08/06 06:33:38;;;;;;;15.40;14.07;;;37.70;99.70;;;;;;4869421;29;20119;-89
2022/08/06 06:36:26;;;;;;;15.65;14.55;;;37.40;99.30;;;;;;4884732;29;20036;-89
2022/08/06 06:39:13;;;;;;;15.20;13.82;;;36.90;99.60;;;;;;4869290;29;20040;-90
2022/08/06 06:42:03;;;;;;;14.93;13.68;;;36.60;99.70;;;;;;4884366;29;20391;-91
2022/08/06 06:44:48;;;;;;;14.82;13.85;;;36.30;99.50;;;;;;4868940;29;20029;-91
2022/08/06 06:47:36;;;;;;;15.48;14.30;;;36.60;99.20;;;;;;4869529;29;20079;-92
2022/08/06 06:50:11;;;;;;;15.02;14.13;;;36.60;99.60;;;;;;4884767;29;20498;-92
2022/08/06 06:52:43;;;;;;;14.80;13.80;;;36.80;99.00;;;;;;4884630;29;20064;-92
2022/08/06 06:55:25;;;;;;;15.80;14.38;;;37.30;98.80;;;;;;4885188;29;20028;-91
2022/08/06 06:58:23;;;;;;;15.30;14.25;;;37.90;98.60;;;;;;4868873;29;20040;-92
2022/08/06 07:00:52;;;;;;;14.63;13.60;;;37.80;95.70;;;;;;4868973;29;20037;-92
2022/08/06 07:03:21;;;;;;;14.27;13.32;;;37.30;95.10;;;;;;4860810;29;20021;-92
2022/08/06 07:05:49;;;;;;;15.10;14.20;;;36.80;95.00;;;;;;4880460;29;20029;-93
2022/08/06 07:08:23;;;;;;;15.05;14.15;;;37.10;94.70;;;;;;4881695;29;20029;-92
2022/08/06 07:10:50;;;;;;;14.77;13.77;;;37.50;93.90;;;;;;4882065;29;20035;-91
2022/08/06 07:13:19;;;;;;;14.38;13.55;;;37.90;93.60;;;;;;4882439;29;20088;-93
2022/08/06 07:16:10;;;;;;;14.68;13.77;;;38.10;93.00;;;;;;4881573;29;20061;-92
2022/08/06 07:18:38;;;;;;;14.65;13.75;;;37.30;93.40;;;;;;4867893;29;20029;-92
2022/08/06 07:21:07;;;;;;;15.23;13.70;;;38.00;93.20;;;;;;4868318;29;20112;-92
2022/08/06 07:23:38;;;;;;;14.52;13.65;;;38.20;93.00;;;;;;4884280;29;20052;-92
2022/08/06 07:26:07;;;;;;;15.00;14.00;;;38.60;92.00;;;;;;4883611;29;20084;-92
2022/08/06 07:28:36;;;;;;;14.70;13.80;;;37.70;92.50;;;;;;4884080;29;20435;-92
2022/08/06 07:31:06;;;;;;;16.17;15.18;;;37.00;92.90;;;;;;4883771;29;20115;-92
2022/08/06 07:33:35;;;;;;;14.68;13.77;;;37.30;93.20;;;;;;4868280;29;20088;-92
2022/08/06 07:36:02;;;;;;;14.95;13.73;;;37.30;92.90;;;;;;4868317;29;20028;-93
2022/08/06 07:38:33;;;;;;;14.27;13.23;;;37.30;93.40;;;;;;4853883;29;20125;-91
2022/08/06 07:41:05;;;;;;;14.57;13.77;;;37.20;93.40;;;;;;4880464;29;20049;-92
2022/08/06 07:43:53;;;;;;;14.05;13.02;;;37.10;93.40;;;;;;4864893;29;20056;-91
2022/08/06 07:46:28;;;;;;;14.27;13.27;;;37.30;93.60;;;;;;4880458;29;20037;-94
2022/08/06 07:49:01;;;;;;;14.80;13.52;;;37.30;93.40;;;;;;4880400;29;20049;-93
2022/08/06 07:51:34;;;;;;;14.00;12.90;;;37.50;93.00;;;;;;4880513;29;20037;-93
2022/08/06 07:54:08;;;;;;;14.23;13.50;;;37.40;93.40;;;;;;4864827;29;20033;-92
2022/08/06 07:56:39;;;;;;;14.40;13.50;;;37.30;93.60;;;;;;4880606;29;20040;-93
2022/08/06 07:59:06;;;;;;;14.07;13.18;;;37.30;93.40;;;;;;4882679;29;20080;-94
2022/08/06 08:01:33;;;;;;;14.20;13.27;;;37.20;93.60;;;;;;4866726;29;20044;-93
2022/08/06 08:06:46;;;;;;;13.45;12.73;;;37.20;93.90;;;;;;4880677;29;20076;-95
2022/08/06 08:09:17;;;;;;;15.02;13.88;;;36.80;94.10;;;;;;4864900;29;20056;-94
2022/08/06 08:11:46;;;;;;;15.02;13.50;;;36.50;94.70;;;;;;4889076;29;20453;-93
2022/08/06 08:14:18;;;;;;;14.35;13.55;;;36.90;94.90;;;;;;4896786;29;20028;-92
2022/08/06 08:16:49;;;;;;;14.90;13.63;;;37.00;95.20;;;;;;4899178;29;20413;-93
2022/08/06 08:19:22;;;;;;;14.30;13.38;;;37.20;95.70;;;;;;4885444;29;20439;-95
2022/08/06 08:21:56;;;;;;;14.07;13.13;;;37.70;96.00;;;;;;4867487;29;20518;-93
2022/08/06 08:24:24;;;;;;;14.80;13.90;;;38.00;95.80;;;;;;4883081;29;20037;-92
2022/08/06 08:26:55;;;;;;;15.32;14.10;;;37.30;95.60;;;;;;4877661;29;20375;-95
2022/08/06 08:29:21;;;;;;;14.57;13.48;;;36.90;95.90;;;;;;4883204;29;20039;-92
2022/08/06 08:31:50;;;;;;;14.57;13.57;;;36.70;95.70;;;;;;4867433;29;20056;-94
2022/08/06 08:34:16;;;;;;;14.27;13.38;;;36.70;96.30;;;;;;4867859;29;20044;-92
2022/08/06 08:36:46;;;;;;;13.68;12.98;;;36.60;96.80;;;;;;4867861;29;20037;-93
2022/08/06 08:39:15;;;;;;;14.52;13.63;;;36.70;97.00;;;;;;4861375;29;20071;-95
2022/08/06 08:41:55;;;;;;;13.68;12.90;;;36.60;96.90;;;;;;4886044;29;20064;-94
2022/08/06 08:44:26;;;;;;;13.98;13.07;;;36.20;97.80;;;;;;4886474;29;20028;-94
2022/08/06 08:46:59;;;;;;;14.18;13.27;;;36.10;98.30;;;;;;4885112;29;20455;-93
2022/08/06 08:49:37;;;;;;;14.20;13.00;;;36.30;98.90;;;;;;4893397;29;20070;-94
2022/08/06 08:52:07;;;;;;;14.75;13.63;;;36.40;99.40;;;;;;4884623;29;20043;-93
2022/08/06 08:54:38;;;;;;;13.82;12.93;;;36.10;99.30;;;;;;4889147;29;20043;-93
2022/08/06 08:57:05;;;;;;;13.55;12.27;;;35.70;99.90;;;;;;4885578;29;20108;-93
2022/08/06 08:59:34;;;;;;;13.27;12.40;;;35.30;99.90;;;;;;4866882;29;20021;-93
2022/08/06 09:02:02;;;;;;;13.95;12.98;;;35.50;99.90;;;;;;4882428;29;20043;-94
2022/08/06 09:04:31;;;;;;;13.75;12.75;;;35.40;99.90;;;;;;4873398;29;20020;-93
2022/08/06 09:06:57;;;;;;;13.20;12.30;;;35.40;99.90;;;;;;4901842;29;20047;-93
2022/08/06 09:09:26;;;;;;;13.07;12.27;;;35.40;99.90;;;;;;4880594;29;20052;-93
2022/08/06 09:11:57;;;;;;;13.27;12.23;;;35.60;99.90;;;;;;4873818;29;20490;-95
2022/08/06 09:14:24;;;;;;;13.13;12.02;;;35.60;99.90;;;;;;4885916;29;20033;-93
2022/08/06 09:16:50;;;;;;;13.40;11.95;;;35.70;99.90;;;;;;4869581;29;20032;-92
2022/08/06 09:19:18;;;;;;;12.48;11.68;;;35.60;99.90;;;;;;4889371;29;20053;-92
2022/08/06 09:21:45;;;;;;;13.07;11.98;;;35.50;99.90;;;;;;4887103;29;20043;-93
2022/08/06 09:24:12;;;;;;;12.95;12.23;;;36.10;99.90;;;;;;4870903;29;20149;-95
2022/08/06 09:26:59;;;;;;;13.07;12.07;;;36.10;99.90;;;;;;4899503;29;20038;-94
2022/08/06 09:29:26;;;;;;;13.02;12.00;;;35.70;99.90;;;;;;4884177;29;20477;-93
2022/08/06 09:31:52;;;;;;;12.20;11.40;;;35.60;99.90;;;;;;4896873;29;20028;-94
2022/08/06 09:34:19;;;;;;;12.32;11.27;;;35.00;99.90;;;;;;4881890;29;20084;-94
2022/08/06 09:36:49;;;;;;;13.10;12.02;;;35.00;99.90;;;;;;4893390;29;20379;-94
2022/08/06 09:39:16;;;;;;;12.27;11.48;;;35.20;99.90;;;;;;4890769;29;20032;-93
2022/08/06 09:41:48;;;;;;;11.88;11.07;;;35.30;99.90;;;;;;4886464;29;20569;-94
2022/08/06 09:44:15;;;;;;;11.18;10.35;;;34.90;99.90;;;;;;4885389;29;20037;-94
2022/08/06 09:46:47;;;;;;;11.02;10.23;;;34.60;99.90;;;;;;4898176;29;20047;-93
2022/08/06 09:49:15;;;;;;;11.50;10.50;;;34.20;99.90;;;;;;4896279;29;20048;-94
2022/08/06 09:51:43;;;;;;;11.95;11.10;;;34.10;99.90;;;;;;4888495;29;20032;-94
2022/08/06 09:54:20;;;;;;;12.63;11.80;;;34.50;99.90;;;;;;4872426;29;20028;-95
2022/08/06 09:56:59;;;;;;;12.30;11.23;;;34.80;99.90;;;;;;4898833;29;20059;-92
2022/08/06 09:59:26;;;;;;;11.30;10.60;;;35.00;99.90;;;;;;4885266;29;20490;-92
2022/08/06 10:01:53;;;;;;;12.57;11.50;;;34.90;99.90;;;;;;4885092;29;20044;-93
2022/08/06 14:23:59;;;;;;;13.68;12.50;;;33.90;99.70;;;;;;5306112;23;20076;-93
2022/08/06 14:26:25;;;;;;;12.82;12.13;;;33.80;98.90;;;;;;4903124;29;20039;-92
2022/08/06 14:28:53;;;;;;;14.60;13.40;;;33.80;99.80;;;;;;4903736;29;20043;-92
2022/08/06 14:31:19;;;;;;;12.50;11.68;;;33.90;99.80;;;;;;4903607;29;20028;-92
2022/08/06 14:33:46;;;;;;;13.00;12.10;;;33.80;99.90;;;;;;4903367;29;20047;-94
2022/08/06 14:36:12;;;;;;;12.20;11.35;;;33.60;99.90;;;;;;4903302;29;20038;-92
2022/08/06 14:38:40;;;;;;;13.23;12.32;;;33.60;99.90;;;;;;4905136;29;20028;-93
2022/08/06 14:46:37;;;;;;;13.07;12.18;;;33.90;99.90;;;;;;4886223;29;20096;-92
2022/08/06 14:49:03;;;;;;;13.60;12.60;;;33.80;99.90;;;;;;4889319;29;20039;-93
2022/08/06 14:51:29;;;;;;;15.68;14.30;;;33.50;99.90;;;;;;4885657;29;20049;-93
2022/08/06 14:53:56;;;;;;;14.80;13.50;;;33.50;99.90;;;;;;4884396;29;20486;-93
2022/08/06 14:56:22;;;;;;;14.05;13.00;;;33.50;99.90;;;;;;4884190;29;20115;-92
2022/08/06 14:58:51;;;;;;;14.00;13.10;;;33.60;99.90;;;;;;4884949;29;20036;-93
2022/08/06 15:01:21;;;;;;;13.27;12.35;;;33.40;99.90;;;;;;4885286;29;20037;-94
2022/08/06 15:03:47;;;;;;;12.88;11.90;;;33.30;99.90;;;;;;4884603;29;20080;-93
2022/08/06 15:06:14;;;;;;;14.45;13.23;;;33.30;99.90;;;;;;4884892;29;20025;-92
2022/08/06 15:08:40;;;;;;;15.98;14.55;;;33.30;99.90;;;;;;4884843;29;20502;-93
2022/08/06 15:11:09;;;;;;;15.75;14.30;;;33.40;99.90;;;;;;4869766;29;20032;-93
2022/08/06 15:13:55;;;;;;;15.48;14.13;;;33.50;99.90;;;;;;4886252;29;20034;-94
2022/08/06 15:16:27;;;;;;;18.20;16.70;;;33.40;99.90;;;;;;4893089;29;20478;-94
2022/08/06 15:18:54;;;;;;;16.77;15.48;;;33.30;99.90;;;;;;4885308;29;20039;-94
2022/08/06 15:21:20;;;;;;;15.73;14.52;;;33.30;99.90;;;;;;4886843;29;20060;-95
2022/08/06 15:24:17;;;;;;;14.55;13.45;;;33.30;99.90;;;;;;4886184;29;20044;-93
2022/08/06 15:26:44;;;;;;;15.55;14.35;;;33.30;99.90;;;;;;4894126;29;20040;-93
2022/08/06 15:29:11;;;;;;;16.75;15.10;;;33.30;99.90;;;;;;4887067;29;20012;-93
2022/08/06 15:31:38;;;;;;;14.65;13.63;;;33.50;99.90;;;;;;4896486;29;20052;-93
2022/08/06 15:34:05;;;;;;;15.35;14.07;;;33.50;99.90;;;;;;4875022;29;20035;-93
2022/08/06 15:36:31;;;;;;;13.93;13.02;;;33.50;99.30;;;;;;4884193;29;20128;-94
2022/08/06 15:38:58;;;;;;;15.07;14.00;;;33.40;99.60;;;;;;4887226;29;20024;-92
2022/08/06 15:41:27;;;;;;;14.05;13.10;;;33.40;99.50;;;;;;4886384;29;20044;-93
2022/08/06 15:43:53;;;;;;;13.30;12.30;;;33.50;99.20;;;;;;4871985;29;20036;-94
2022/08/06 15:46:20;;;;;;;12.98;12.15;;;33.50;98.30;;;;;;4868060;29;20029;-95
2022/08/06 15:48:49;;;;;;;12.68;12.00;;;33.50;97.80;;;;;;4867834;29;20028;-92
2022/08/06 15:51:25;;;;;;;13.55;12.65;;;33.40;98.50;;;;;;4896601;29;20025;-93
2022/08/06 15:53:53;;;;;;;18.95;12.18;;;33.40;98.00;;;;;;4884078;29;20025;-93
2022/08/06 15:56:20;;;;;;;12.80;12.10;;;33.50;97.60;;;;;;4899020;29;20046;-94
2022/08/06 15:58:46;;;;;;;13.27;12.50;;;33.60;97.30;;;;;;4898625;29;20032;-94
2022/08/06 16:01:13;;;;;;;12.70;12.00;;;33.50;97.30;;;;;;4898457;29;20032;-94
2022/08/06 16:03:39;;;;;;;13.32;12.25;;;33.50;97.30;;;;;;4898806;29;20036;-94
2022/08/06 16:06:08;;;;;;;13.10;12.40;;;33.30;97.40;;;;;;4898600;29;20088;-94
2022/08/06 16:08:35;;;;;;;12.57;11.88;;;33.10;98.30;;;;;;4898654;29;20060;-92
2022/08/06 16:11:05;;;;;;;12.55;11.85;;;33.10;98.30;;;;;;4898600;29;20059;-93
2022/08/06 16:13:31;;;;;;;12.07;11.38;;;33.00;97.60;;;;;;4898682;29;20119;-94
2022/08/06 16:15:58;;;;;;;12.77;11.98;;;32.80;98.60;;;;;;4898379;29;20036;-94
2022/08/06 16:18:24;;;;;;;12.82;12.05;;;32.80;98.60;;;;;;4898526;29;20033;-94
2022/08/06 16:20:50;;;;;;;12.32;11.70;;;32.70;98.50;;;;;;4898544;29;20039;-93
2022/08/06 16:23:17;;;;;;;13.02;12.23;;;32.70;97.90;;;;;;4897982;29;20112;-92
2022/08/06 16:25:44;;;;;;;13.90;12.90;;;32.70;98.10;;;;;;4882895;29;20040;-93
2022/08/06 16:28:11;;;;;;;13.55;12.60;;;32.60;98.10;;;;;;4898633;29;20067;-92
2022/08/06 16:30:38;;;;;;;13.55;12.43;;;32.50;97.20;;;;;;4898193;29;20036;-92
2022/08/06 16:33:04;;;;;;;13.05;12.35;;;32.50;96.80;;;;;;4898168;29;20048;-92
2022/08/06 16:35:31;;;;;;;12.95;12.20;;;32.40;96.10;;;;;;4899867;29;20104;-93
2022/08/06 16:37:57;;;;;;;13.18;12.48;;;32.30;95.80;;;;;;4900320;29;20036;-92
2022/08/06 16:40:25;;;;;;;13.02;12.23;;;32.30;96.30;;;;;;4897985;29;20434;-93
2022/08/06 16:42:53;;;;;;;12.70;12.00;;;32.30;96.60;;;;;;4899418;29;20068;-92
2022/08/06 16:45:20;;;;;;;13.23;12.30;;;32.20;96.90;;;;;;4898029;29;20025;-94
2022/08/06 16:47:46;;;;;;;14.23;13.13;;;32.10;97.00;;;;;;4898573;29;20033;-92
2022/08/06 16:50:13;;;;;;;13.20;12.43;;;32.10;97.10;;;;;;4898003;29;20455;-94
2022/08/06 16:52:40;;;;;;;14.70;13.73;;;32.10;96.80;;;;;;4897697;29;20033;-93
2022/08/06 16:55:08;;;;;;;13.65;12.85;;;32.00;96.90;;;;;;4898463;29;20044;-95
2022/08/06 16:57:35;;;;;;;13.75;12.95;;;32.00;96.90;;;;;;4898100;29;20502;-94
2022/08/06 17:00:02;;;;;;;13.50;12.80;;;32.10;97.00;;;;;;4898161;29;20401;-93
2022/08/06 17:02:37;;;;;;;13.30;12.50;;;32.20;97.10;;;;;;4897719;29;20041;-93
2022/08/06 17:05:09;;;;;;;13.65;12.85;;;32.20;96.90;;;;;;4897960;29;20024;-93
2022/08/06 17:07:38;;;;;;;13.30;12.40;;;32.10;97.20;;;;;;4897871;29;20036;-95
2022/08/06 17:10:06;;;;;;;13.95;13.05;;;32.10;97.50;;;;;;4897877;29;20044;-91
2022/08/06 17:12:33;;;;;;;12.75;11.98;;;32.00;96.90;;;;;;4897801;29;20406;-93
2022/08/06 17:15:00;;;;;;;13.48;12.68;;;31.90;97.00;;;;;;4897635;29;20052;-92
2022/08/06 17:17:26;;;;;;;13.02;11.95;;;31.80;97.00;;;;;;4898038;29;20036;-93
2022/08/06 17:19:53;;;;;;;13.02;12.20;;;31.70;97.40;;;;;;4898156;29;20028;-93
2022/08/06 17:22:19;;;;;;;13.40;12.23;;;31.70;97.60;;;;;;4897681;29;20044;-93